Time;durP1;ratioP1;P1;durP2;ratioP2;P2;SDS_P1;SDS_P2;PMS_P1;PMS_P2;Temp;Humidity;BMP_temperature;BMP_pressure;BME280_temperature;BME280_humidity;BME280_pressure;Samples;Min_cycle;Max_cycle;Signal;HPM_P1;HPM_P2
2023/12/15 00:02:21;;;;;;;25.85;12.48;;;;;;;;;;5043171;28;20096;-58
2023/12/15 00:04:48;;;;;;;21.45;12.85;;;;;;;;;;5043824;28;20049;-58
2023/12/15 00:07:13;;;;;;;23.02;12.50;;;;;;;;;;5043247;28;20550;-58
2023/12/15 00:09:39;;;;;;;27.60;13.38;;;;;;;;;;5043656;28;20554;-58
2023/12/15 00:12:05;;;;;;;30.30;13.82;;;;;;;;;;5042897;28;20090;-58
2023/12/15 00:14:32;;;;;;;27.38;13.15;;;;;;;;;;5025637;28;20067;-58
2023/12/15 00:16:58;;;;;;;28.08;13.68;;;;;;;;;;5025579;28;20053;-58
2023/12/15 00:19:24;;;;;;;30.23;13.35;;;;;;;;;;5043347;28;20485;-58
2023/12/15 00:21:49;;;;;;;24.00;12.93;;;;;;;;;;5043251;28;20067;-58
2023/12/15 00:24:15;;;;;;;26.17;15.00;;;;;;;;;;5043255;28;20029;-58
2023/12/15 00:26:41;;;;;;;24.60;12.95;;;;;;;;;;5043047;28;20807;-58
2023/12/15 00:29:07;;;;;;;34.60;14.18;;;;;;;;;;5042115;28;20059;-58
2023/12/15 00:31:35;;;;;;;35.50;14.13;;;;;;;;;;5042822;28;20321;-58
2023/12/15 00:34:01;;;;;;;30.52;14.35;;;;;;;;;;5043085;28;20037;-58
2023/12/15 00:36:27;;;;;;;29.88;13.75;;;;;;;;;;5043435;28;20072;-58
2023/12/15 00:38:53;;;;;;;28.83;14.60;;;;;;;;;;5043068;28;20048;-57
2023/12/15 00:41:19;;;;;;;30.52;14.40;;;;;;;;;;5036598;28;20049;-58
2023/12/15 00:43:46;;;;;;;29.33;14.10;;;;;;;;;;5042652;28;20040;-58
2023/12/15 00:46:12;;;;;;;25.63;13.73;;;;;;;;;;5042142;28;20060;-57
2023/12/15 00:48:38;;;;;;;28.98;14.48;;;;;;;;;;5041965;28;20049;-57
2023/12/15 00:51:04;;;;;;;27.35;14.93;;;;;;;;;;5042579;28;20652;-58
2023/12/15 00:53:32;;;;;;;26.98;14.48;;;;;;;;;;5043177;28;20055;-58
2023/12/15 00:55:59;;;;;;;30.55;15.40;;;;;;;;;;5039080;28;20072;-57
2023/12/15 00:58:25;;;;;;;27.80;14.80;;;;;;;;;;5041692;28;20482;-58
2023/12/15 01:00:51;;;;;;;26.48;15.13;;;;;;;;;;5042280;28;20045;-58
2023/12/15 01:03:17;;;;;;;32.60;15.38;;;;;;;;;;5024122;28;20049;-57
2023/12/15 01:05:43;;;;;;;29.50;14.52;;;;;;;;;;5042126;28;20048;-58
2023/12/15 01:08:09;;;;;;;33.90;15.55;;;;;;;;;;5042258;28;20493;-58
2023/12/15 01:10:35;;;;;;;32.40;15.85;;;;;;;;;;5042371;28;20047;-58
2023/12/15 01:13:01;;;;;;;33.95;16.05;;;;;;;;;;5041325;28;20044;-58
2023/12/15 01:15:27;;;;;;;34.25;16.20;;;;;;;;;;5041991;28;20052;-58
2023/12/15 01:17:53;;;;;;;27.73;15.63;;;;;;;;;;5041334;28;20395;-58
2023/12/15 01:20:19;;;;;;;39.17;15.95;;;;;;;;;;5042076;28;20037;-57
2023/12/15 01:22:45;;;;;;;34.50;15.88;;;;;;;;;;5042049;28;20470;-58
2023/12/15 01:25:11;;;;;;;35.25;15.85;;;;;;;;;;5042203;28;20052;-58
2023/12/15 01:27:38;;;;;;;33.67;16.83;;;;;;;;;;5041342;28;20044;-58
2023/12/15 01:30:05;;;;;;;32.10;14.98;;;;;;;;;;5042047;28;20037;-58
2023/12/15 01:32:31;;;;;;;31.27;16.33;;;;;;;;;;5040537;28;20049;-58
2023/12/15 01:34:57;;;;;;;32.55;16.27;;;;;;;;;;5041721;28;20041;-58
2023/12/15 01:37:23;;;;;;;31.70;15.30;;;;;;;;;;5041192;28;20080;-58
2023/12/15 01:39:50;;;;;;;39.05;16.75;;;;;;;;;;5042138;28;20048;-58
2023/12/15 01:42:16;;;;;;;36.60;16.17;;;;;;;;;;5040713;28;20049;-58
2023/12/15 01:44:43;;;;;;;38.20;16.40;;;;;;;;;;5041471;28;20045;-58
2023/12/15 01:47:10;;;;;;;34.83;15.50;;;;;;;;;;5041547;28;20110;-58
2023/12/15 01:49:36;;;;;;;38.47;16.17;;;;;;;;;;5040417;28;20083;-58
2023/12/15 01:52:02;;;;;;;36.53;16.70;;;;;;;;;;5041586;28;20048;-58
2023/12/15 01:54:28;;;;;;;37.78;16.35;;;;;;;;;;5023596;28;20126;-58
2023/12/15 01:56:54;;;;;;;39.13;16.80;;;;;;;;;;5041009;28;20674;-58
2023/12/15 01:59:20;;;;;;;39.25;18.42;;;;;;;;;;5041588;28;20044;-58
2023/12/15 02:01:46;;;;;;;38.60;16.95;;;;;;;;;;5041695;28;20087;-58
2023/12/15 02:04:12;;;;;;;35.80;17.05;;;;;;;;;;5040617;28;20060;-58
2023/12/15 02:06:38;;;;;;;33.00;17.23;;;;;;;;;;5041105;28;20048;-58
2023/12/15 02:09:04;;;;;;;39.30;18.33;;;;;;;;;;5041153;28;20045;-57
2023/12/15 02:11:30;;;;;;;33.10;15.63;;;;;;;;;;5040926;28;20037;-58
2023/12/15 02:13:56;;;;;;;31.98;16.73;;;;;;;;;;5040677;28;20069;-58
2023/12/15 02:16:22;;;;;;;36.90;17.02;;;;;;;;;;5041338;28;20465;-57
2023/12/15 02:18:48;;;;;;;34.10;17.85;;;;;;;;;;5041221;28;20105;-58
2023/12/15 02:21:14;;;;;;;37.63;17.08;;;;;;;;;;5041212;28;20072;-58
2023/12/15 02:23:40;;;;;;;39.25;17.15;;;;;;;;;;5041163;28;20067;-58
2023/12/15 02:26:06;;;;;;;39.17;17.58;;;;;;;;;;5040886;28;20041;-58
2023/12/15 02:28:32;;;;;;;32.80;16.75;;;;;;;;;;5040474;28;20106;-58
2023/12/15 02:30:58;;;;;;;40.00;17.77;;;;;;;;;;5040115;28;20490;-57
2023/12/15 02:33:24;;;;;;;37.25;17.95;;;;;;;;;;5043635;28;20107;-60
2023/12/15 02:35:50;;;;;;;39.88;17.00;;;;;;;;;;5051998;28;20712;-58
2023/12/15 02:38:18;;;;;;;43.15;19.90;;;;;;;;;;5040934;28;20037;-58
2023/12/15 02:40:44;;;;;;;33.88;17.95;;;;;;;;;;5041296;28;20194;-58
2023/12/15 02:43:13;;;;;;;43.00;18.67;;;;;;;;;;5040707;28;20037;-58
2023/12/15 02:45:39;;;;;;;36.17;16.50;;;;;;;;;;5041034;28;20451;-58
2023/12/15 02:48:05;;;;;;;40.10;18.13;;;;;;;;;;5042430;28;20167;-58
2023/12/15 02:50:31;;;;;;;37.53;17.98;;;;;;;;;;5043744;28;20151;-58
2023/12/15 02:52:57;;;;;;;43.72;18.75;;;;;;;;;;5026812;28;20557;-58
2023/12/15 02:55:23;;;;;;;35.67;18.17;;;;;;;;;;5045046;28;20095;-58
2023/12/15 02:57:49;;;;;;;37.33;18.05;;;;;;;;;;5026686;28;20044;-58
2023/12/15 03:00:15;;;;;;;37.38;17.75;;;;;;;;;;5044912;28;20063;-57
2023/12/15 03:02:41;;;;;;;41.75;18.80;;;;;;;;;;5044049;28;20495;-58
2023/12/15 03:05:07;;;;;;;38.22;17.40;;;;;;;;;;5043547;28;20052;-58
2023/12/15 03:07:33;;;;;;;47.13;19.33;;;;;;;;;;5044494;28;20049;-58
2023/12/15 03:09:59;;;;;;;45.97;18.08;;;;;;;;;;5041900;28;20041;-57
2023/12/15 03:12:25;;;;;;;39.10;17.65;;;;;;;;;;5043751;28;20501;-57
2023/12/15 03:14:51;;;;;;;44.00;19.52;;;;;;;;;;5044587;28;20068;-58
2023/12/15 03:17:18;;;;;;;38.97;17.40;;;;;;;;;;5026640;28;20080;-58
2023/12/15 03:19:44;;;;;;;40.70;19.38;;;;;;;;;;5043674;28;20202;-58
2023/12/15 03:22:11;;;;;;;38.25;17.98;;;;;;;;;;5043709;28;20411;-58
2023/12/15 03:24:37;;;;;;;34.92;16.42;;;;;;;;;;5044653;28;20067;-58
2023/12/15 03:27:03;;;;;;;43.83;18.38;;;;;;;;;;5043849;28;20522;-58
2023/12/15 03:29:29;;;;;;;45.97;17.63;;;;;;;;;;5044135;28;20052;-58
2023/12/15 03:31:56;;;;;;;44.15;17.92;;;;;;;;;;5043527;28;20037;-57
2023/12/15 03:34:22;;;;;;;46.08;17.40;;;;;;;;;;5029690;28;20076;-58
2023/12/15 03:36:48;;;;;;;50.42;17.77;;;;;;;;;;5043867;28;20273;-58
2023/12/15 03:39:14;;;;;;;41.85;18.10;;;;;;;;;;5044381;28;20041;-58
2023/12/15 03:41:40;;;;;;;39.95;19.13;;;;;;;;;;5043510;28;20044;-58
2023/12/15 03:44:06;;;;;;;51.25;18.42;;;;;;;;;;5044138;28;20048;-58
2023/12/15 03:46:32;;;;;;;40.28;18.83;;;;;;;;;;5043682;28;20079;-58
2023/12/15 03:48:58;;;;;;;44.30;17.92;;;;;;;;;;5044159;28;20080;-58
2023/12/15 03:51:24;;;;;;;44.83;18.20;;;;;;;;;;5043825;28;20043;-58
2023/12/15 03:53:50;;;;;;;41.10;17.90;;;;;;;;;;5043761;28;20053;-58
2023/12/15 03:56:23;;;;;;;44.63;17.95;;;;;;;;;;5043701;28;20051;-58
2023/12/15 03:58:49;;;;;;;45.67;17.02;;;;;;;;;;5043573;28;20503;-58
2023/12/15 04:01:15;;;;;;;42.88;16.80;;;;;;;;;;5042908;28;20044;-58
2023/12/15 04:03:41;;;;;;;37.55;17.33;;;;;;;;;;5043673;28;20069;-58
2023/12/15 04:06:10;;;;;;;37.40;16.52;;;;;;;;;;5043079;28;20052;-58
2023/12/15 04:08:36;;;;;;;44.30;18.08;;;;;;;;;;5043394;28;20049;-58
2023/12/15 04:11:02;;;;;;;41.35;18.15;;;;;;;;;;5042310;28;20102;-58
2023/12/15 04:13:28;;;;;;;45.58;18.30;;;;;;;;;;5032508;28;20402;-58
2023/12/15 04:15:54;;;;;;;42.58;16.75;;;;;;;;;;5043328;28;20053;-58
2023/12/15 04:18:20;;;;;;;37.88;16.65;;;;;;;;;;5043630;28;20040;-58
2023/12/15 04:20:46;;;;;;;31.15;15.60;;;;;;;;;;5042745;28;20098;-58
2023/12/15 04:23:12;;;;;;;37.08;15.93;;;;;;;;;;5043198;28;20095;-58
2023/12/15 04:25:38;;;;;;;42.95;16.75;;;;;;;;;;5043124;28;20064;-58
2023/12/15 04:28:04;;;;;;;46.35;18.08;;;;;;;;;;5042364;28;20725;-58
2023/12/15 04:30:30;;;;;;;46.03;16.42;;;;;;;;;;5042547;28;20159;-58
2023/12/15 04:32:56;;;;;;;37.90;16.52;;;;;;;;;;5042963;28;20541;-58
2023/12/15 04:35:23;;;;;;;30.42;14.98;;;;;;;;;;5043214;28;20102;-58
2023/12/15 04:37:49;;;;;;;42.30;17.85;;;;;;;;;;5043272;28;20049;-58
2023/12/15 04:40:15;;;;;;;42.53;17.40;;;;;;;;;;5042509;28;20041;-58
2023/12/15 04:42:41;;;;;;;44.35;16.67;;;;;;;;;;5042509;28;20041;-58
2023/12/15 04:45:08;;;;;;;38.05;15.82;;;;;;;;;;5042582;28;20079;-58
2023/12/15 04:47:35;;;;;;;35.05;16.38;;;;;;;;;;5042861;28;20131;-59
2023/12/15 04:50:02;;;;;;;37.38;15.52;;;;;;;;;;5042463;28;20044;-58
2023/12/15 04:52:28;;;;;;;38.08;15.68;;;;;;;;;;5042930;28;20071;-58
2023/12/15 04:54:54;;;;;;;37.85;15.80;;;;;;;;;;5042410;28;20039;-58
2023/12/15 04:57:20;;;;;;;41.53;16.27;;;;;;;;;;5041884;28;20588;-58
2023/12/15 04:59:46;;;;;;;43.20;17.70;;;;;;;;;;5042901;28;20041;-57
2023/12/15 05:02:12;;;;;;;37.50;16.08;;;;;;;;;;5042868;28;20049;-58
2023/12/15 05:04:39;;;;;;;42.25;15.93;;;;;;;;;;5042435;28;20091;-58
2023/12/15 05:07:05;;;;;;;38.72;16.08;;;;;;;;;;5042733;28;20041;-58
2023/12/15 05:09:31;;;;;;;43.97;16.65;;;;;;;;;;5042261;28;20052;-57
2023/12/15 05:11:57;;;;;;;39.85;15.90;;;;;;;;;;5039984;28;20180;-57
2023/12/15 05:14:23;;;;;;;34.08;16.60;;;;;;;;;;5042251;28;20446;-58
2023/12/15 05:16:48;;;;;;;34.67;15.60;;;;;;;;;;5041853;28;20037;-58
2023/12/15 05:19:15;;;;;;;40.00;16.42;;;;;;;;;;5042014;28;20551;-58
2023/12/15 05:21:41;;;;;;;40.85;15.93;;;;;;;;;;5042318;28;20125;-58
2023/12/15 05:24:07;;;;;;;39.78;15.68;;;;;;;;;;5023984;28;20114;-59
2023/12/15 05:26:33;;;;;;;32.45;16.13;;;;;;;;;;5041289;28;20106;-58
2023/12/15 05:28:59;;;;;;;43.63;16.63;;;;;;;;;;5041988;28;20091;-59
2023/12/15 05:31:25;;;;;;;38.53;15.55;;;;;;;;;;5041500;28;20577;-59
2023/12/15 05:33:51;;;;;;;34.85;15.40;;;;;;;;;;5042282;28;20048;-58
2023/12/15 05:36:20;;;;;;;37.42;15.38;;;;;;;;;;5041975;28;20473;-59
2023/12/15 05:38:47;;;;;;;39.50;16.00;;;;;;;;;;5041810;28;20055;-59
2023/12/15 05:41:13;;;;;;;38.15;15.77;;;;;;;;;;5041046;28;20044;-59
2023/12/15 05:43:39;;;;;;;40.70;16.90;;;;;;;;;;5037364;28;20049;-59
2023/12/15 05:46:05;;;;;;;35.10;15.82;;;;;;;;;;5041564;28;20044;-57
2023/12/15 05:48:31;;;;;;;39.05;15.25;;;;;;;;;;5041846;28;20059;-59
2023/12/15 05:50:57;;;;;;;44.70;17.95;;;;;;;;;;5041031;28;20045;-58
2023/12/15 05:53:23;;;;;;;39.20;16.05;;;;;;;;;;5041949;28;20049;-58
2023/12/15 05:55:49;;;;;;;41.60;15.65;;;;;;;;;;5041247;28;20052;-58
2023/12/15 05:58:15;;;;;;;42.22;17.08;;;;;;;;;;5041085;28;20083;-58
2023/12/15 06:00:41;;;;;;;36.53;14.57;;;;;;;;;;5041208;28;20044;-58
2023/12/15 06:03:07;;;;;;;33.17;14.95;;;;;;;;;;5023941;28;20096;-61
2023/12/15 06:05:34;;;;;;;36.33;15.57;;;;;;;;;;5024206;28;20052;-58
2023/12/15 06:08:03;;;;;;;35.03;15.23;;;;;;;;;;5041154;28;20079;-58
2023/12/15 06:10:29;;;;;;;34.20;14.75;;;;;;;;;;5037618;28;20562;-59
2023/12/15 06:12:55;;;;;;;31.65;14.50;;;;;;;;;;5021966;28;20498;-59
2023/12/15 06:15:21;;;;;;;40.75;14.65;;;;;;;;;;5038838;28;20045;-59
2023/12/15 06:17:47;;;;;;;36.10;14.98;;;;;;;;;;5040811;28;20041;-59
2023/12/15 06:20:13;;;;;;;41.80;15.73;;;;;;;;;;5037391;28;20037;-59
2023/12/15 06:22:39;;;;;;;39.58;15.20;;;;;;;;;;5039473;28;20078;-59
2023/12/15 06:25:05;;;;;;;40.20;14.48;;;;;;;;;;5045874;28;20044;-59
2023/12/15 06:27:32;;;;;;;34.88;15.15;;;;;;;;;;5038038;28;20079;-58
2023/12/15 06:29:58;;;;;;;41.45;13.98;;;;;;;;;;5044350;28;20068;-58
2023/12/15 06:32:24;;;;;;;42.45;15.38;;;;;;;;;;5042360;28;20927;-59
2023/12/15 06:34:50;;;;;;;37.90;13.95;;;;;;;;;;5025943;28;20110;-59
2023/12/15 06:37:16;;;;;;;31.33;13.90;;;;;;;;;;5040669;28;20087;-59
2023/12/15 06:39:43;;;;;;;36.55;14.63;;;;;;;;;;5040365;28;20076;-59
2023/12/15 06:42:09;;;;;;;37.77;15.10;;;;;;;;;;5042601;28;20048;-61
2023/12/15 06:44:36;;;;;;;43.95;15.35;;;;;;;;;;5042596;28;20645;-59
2023/12/15 06:47:02;;;;;;;36.90;14.57;;;;;;;;;;5023996;28;20059;-59
2023/12/15 06:49:31;;;;;;;41.83;15.25;;;;;;;;;;5041707;28;20049;-59
2023/12/15 06:51:57;;;;;;;39.28;14.27;;;;;;;;;;5042788;28;20124;-59
2023/12/15 06:54:23;;;;;;;35.97;14.85;;;;;;;;;;5048081;28;20508;-59
2023/12/15 06:56:49;;;;;;;36.45;14.07;;;;;;;;;;5042290;28;20044;-59
2023/12/15 06:59:15;;;;;;;41.10;13.38;;;;;;;;;;5043176;28;20079;-59
2023/12/15 07:01:41;;;;;;;48.88;15.23;;;;;;;;;;5042571;28;20049;-59
2023/12/15 07:04:07;;;;;;;40.90;14.35;;;;;;;;;;5043773;28;20060;-58
2023/12/15 07:06:33;;;;;;;34.90;14.70;;;;;;;;;;5055713;28;20056;-58
2023/12/15 07:08:59;;;;;;;87.93;44.33;;;;;;;;;;5038683;28;20041;-58
2023/12/15 07:11:25;;;;;;;40.33;14.38;;;;;;;;;;5043179;28;20133;-58
2023/12/15 07:13:51;;;;;;;52.75;14.85;;;;;;;;;;5044095;28;20045;-58
2023/12/15 07:16:17;;;;;;;56.70;14.93;;;;;;;;;;5043047;28;20033;-59
2023/12/15 07:18:43;;;;;;;37.58;14.18;;;;;;;;;;5042487;28;20052;-59
2023/12/15 07:21:09;;;;;;;41.22;14.15;;;;;;;;;;5041491;28;20045;-58
2023/12/15 07:23:36;;;;;;;37.08;14.77;;;;;;;;;;5042199;28;20052;-58
2023/12/15 07:26:02;;;;;;;36.40;13.48;;;;;;;;;;5041092;28;20074;-59
2023/12/15 07:28:28;;;;;;;41.95;14.23;;;;;;;;;;5041716;28;20045;-58
2023/12/15 07:30:54;;;;;;;38.40;14.65;;;;;;;;;;5042501;28;20044;-59
2023/12/15 07:33:20;;;;;;;41.00;15.27;;;;;;;;;;5043918;28;20049;-59
2023/12/15 07:35:46;;;;;;;44.08;15.07;;;;;;;;;;5043119;28;20044;-59
2023/12/15 07:38:12;;;;;;;46.63;15.20;;;;;;;;;;5044778;28;20444;-58
2023/12/15 07:40:38;;;;;;;35.85;14.00;;;;;;;;;;5044151;28;20048;-58
2023/12/15 07:43:03;;;;;;;42.15;14.75;;;;;;;;;;5042360;28;20456;-58
2023/12/15 07:45:29;;;;;;;39.55;14.43;;;;;;;;;;5027442;28;20045;-58
2023/12/15 07:47:56;;;;;;;39.85;13.10;;;;;;;;;;5044051;28;20603;-58
2023/12/15 07:50:23;;;;;;;37.58;13.50;;;;;;;;;;5043939;28;20463;-58
2023/12/15 07:52:49;;;;;;;37.22;13.27;;;;;;;;;;5044029;28;20045;-59
2023/12/15 07:55:17;;;;;;;43.17;13.45;;;;;;;;;;5043127;28;20043;-59
2023/12/15 07:57:43;;;;;;;;;;;;;;;;;;5025553;28;20057;-61
2023/12/15 08:00:12;;;;;;;35.75;13.82;;;;;;;;;;5043431;28;19930;-58
2023/12/15 08:02:38;;;;;;;30.50;12.70;;;;;;;;;;5043462;28;20056;-59
2023/12/15 08:05:05;;;;;;;31.08;13.38;;;;;;;;;;5043437;28;20524;-59
2023/12/15 08:07:31;;;;;;;30.30;12.20;;;;;;;;;;5043310;28;20045;-59
2023/12/15 08:09:58;;;;;;;31.23;12.25;;;;;;;;;;5043705;28;20051;-58
2023/12/15 08:12:24;;;;;;;33.30;13.73;;;;;;;;;;5042656;28;20049;-59
2023/12/15 08:14:50;;;;;;;39.30;14.30;;;;;;;;;;5043755;28;20045;-59
2023/12/15 08:17:16;;;;;;;32.88;13.10;;;;;;;;;;5043314;28;20041;-59
2023/12/15 08:19:44;;;;;;;38.03;12.50;;;;;;;;;;5042911;28;20041;-59
2023/12/15 08:22:10;;;;;;;33.28;12.25;;;;;;;;;;5042965;28;20407;-59
2023/12/15 08:24:36;;;;;;;38.13;11.68;;;;;;;;;;5025810;28;20048;-59
2023/12/15 08:27:02;;;;;;;34.28;11.88;;;;;;;;;;5042397;28;20043;-59
2023/12/15 08:29:28;;;;;;;34.92;12.20;;;;;;;;;;5043511;28;20546;-59
2023/12/15 08:31:54;;;;;;;27.70;12.18;;;;;;;;;;5043293;28;20474;-59
2023/12/15 08:34:20;;;;;;;33.40;12.13;;;;;;;;;;5043171;28;20087;-59
2023/12/15 08:36:46;;;;;;;30.75;11.60;;;;;;;;;;5042414;28;20126;-59
2023/12/15 08:39:12;;;;;;;30.55;10.82;;;;;;;;;;5042700;28;20036;-59
2023/12/15 08:41:38;;;;;;;32.30;11.20;;;;;;;;;;5042239;28;20132;-59
2023/12/15 08:44:04;;;;;;;28.70;9.70;;;;;;;;;;5042778;28;20037;-59
2023/12/15 08:46:31;;;;;;;31.67;11.00;;;;;;;;;;5042653;28;20037;-59
2023/12/15 08:48:57;;;;;;;26.38;10.30;;;;;;;;;;5042747;28;20098;-59
2023/12/15 08:51:23;;;;;;;26.90;9.32;;;;;;;;;;5042485;28;20048;-59
2023/12/15 08:53:49;;;;;;;31.52;10.95;;;;;;;;;;5042178;28;20053;-59
2023/12/15 08:56:15;;;;;;;33.38;9.95;;;;;;;;;;5042415;28;20071;-59
2023/12/15 08:58:41;;;;;;;35.30;10.43;;;;;;;;;;5042333;28;20091;-59
2023/12/15 09:01:07;;;;;;;23.67;9.05;;;;;;;;;;5041826;28;20053;-59
2023/12/15 09:03:34;;;;;;;33.45;10.60;;;;;;;;;;5042365;28;20382;-59
2023/12/15 09:06:00;;;;;;;28.25;9.82;;;;;;;;;;5042432;28;20092;-58
2023/12/15 09:08:27;;;;;;;25.45;9.50;;;;;;;;;;5042339;28;20041;-59
2023/12/15 09:10:53;;;;;;;25.05;8.82;;;;;;;;;;5041440;28;20041;-59
2023/12/15 09:13:19;;;;;;;30.10;10.25;;;;;;;;;;5042499;28;20063;-59
2023/12/15 09:15:46;;;;;;;30.80;10.45;;;;;;;;;;5042745;28;20061;-57
2023/12/15 09:18:12;;;;;;;30.38;8.95;;;;;;;;;;5030293;28;20095;-59
2023/12/15 09:20:38;;;;;;;32.30;10.50;;;;;;;;;;5041195;28;20822;-59
2023/12/15 09:23:09;;;;;;;26.48;9.02;;;;;;;;;;5042221;28;20057;-58
2023/12/15 09:25:35;;;;;;;29.20;8.85;;;;;;;;;;5041049;28;20438;-58
2023/12/15 09:28:03;;;;;;;31.48;9.82;;;;;;;;;;5042012;28;20045;-59
2023/12/15 09:30:29;;;;;;;30.17;9.02;;;;;;;;;;5037839;28;20236;-58
2023/12/15 09:32:55;;;;;;;26.42;9.00;;;;;;;;;;5042241;28;20634;-59
2023/12/15 09:35:21;;;;;;;26.83;9.18;;;;;;;;;;5041578;28;20508;-59
2023/12/15 09:37:47;;;;;;;24.95;8.60;;;;;;;;;;5041791;28;20095;-59
2023/12/15 09:40:14;;;;;;;26.08;9.10;;;;;;;;;;5041096;28;20399;-59
2023/12/15 09:42:41;;;;;;;26.25;8.70;;;;;;;;;;5034241;28;20103;-58
2023/12/15 09:45:07;;;;;;;27.10;8.35;;;;;;;;;;5041253;28;20037;-59
2023/12/15 09:47:36;;;;;;;22.83;8.07;;;;;;;;;;5041455;28;20049;-59
2023/12/15 09:50:03;;;;;;;25.70;8.98;;;;;;;;;;5041678;28;20041;-59
2023/12/15 09:52:32;;;;;;;26.65;9.02;;;;;;;;;;5041679;28;20041;-59
2023/12/15 09:54:59;;;;;;;29.55;9.32;;;;;;;;;;5041650;28;20052;-59
2023/12/15 09:57:25;;;;;;;23.27;7.30;;;;;;;;;;5040176;28;20094;-59
2023/12/15 09:59:51;;;;;;;29.85;8.77;;;;;;;;;;5041694;28;20041;-61
2023/12/15 10:02:17;;;;;;;25.98;8.07;;;;;;;;;;5041515;28;20068;-59
2023/12/15 10:04:43;;;;;;;27.45;8.20;;;;;;;;;;5041406;28;20053;-59
2023/12/15 10:07:09;;;;;;;22.25;7.80;;;;;;;;;;5041882;28;20037;-59
2023/12/15 10:09:39;;;;;;;31.38;7.80;;;;;;;;;;5041397;28;20120;-59
2023/12/15 10:12:08;;;;;;;33.20;8.50;;;;;;;;;;5023078;28;20103;-59
2023/12/15 10:14:38;;;;;;;24.33;6.90;;;;;;;;;;5023213;28;20502;-59
2023/12/15 10:17:11;;;;;;;28.83;7.93;;;;;;;;;;5041313;28;20091;-59
2023/12/15 10:19:37;;;;;;;27.27;6.97;;;;;;;;;;5041147;28;20179;-59
2023/12/15 10:22:03;;;;;;;34.53;7.03;;;;;;;;;;5041342;28;20033;-59
2023/12/15 10:24:29;;;;;;;34.08;8.75;;;;;;;;;;5041832;28;20049;-59
2023/12/15 10:26:55;;;;;;;27.50;7.30;;;;;;;;;;5040404;28;20052;-59
2023/12/15 10:29:24;;;;;;;23.35;6.80;;;;;;;;;;5041476;28;20532;-59
2023/12/15 10:31:51;;;;;;;23.80;6.38;;;;;;;;;;5041250;28;20502;-59
2023/12/15 10:34:17;;;;;;;31.70;7.53;;;;;;;;;;5023492;28;20040;-59
2023/12/15 10:36:47;;;;;;;28.75;7.38;;;;;;;;;;5022918;28;20048;-59
2023/12/15 10:39:17;;;;;;;22.20;7.03;;;;;;;;;;5041041;28;20052;-59
2023/12/15 10:41:43;;;;;;;26.10;6.68;;;;;;;;;;5005853;28;20072;-59
2023/12/15 10:44:13;;;;;;;27.73;6.78;;;;;;;;;;5041038;28;20049;-58
2023/12/15 10:46:43;;;;;;;29.38;7.30;;;;;;;;;;5022125;28;20045;-59
2023/12/15 10:49:10;;;;;;;31.98;7.35;;;;;;;;;;5023214;28;20052;-58
2023/12/15 10:51:38;;;;;;;25.38;5.95;;;;;;;;;;5040957;28;20049;-59
2023/12/15 10:54:05;;;;;;;29.67;7.68;;;;;;;;;;5040916;28;20566;-58
2023/12/15 10:56:31;;;;;;;29.70;6.75;;;;;;;;;;5039925;28;20041;-58
2023/12/15 10:58:59;;;;;;;34.03;7.13;;;;;;;;;;5041387;28;20038;-59
2023/12/15 11:01:27;;;;;;;24.83;7.13;;;;;;;;;;5041282;28;20052;-58
2023/12/15 11:03:53;;;;;;;20.15;5.30;;;;;;;;;;5041010;28;20683;-59
2023/12/15 11:06:30;;;;;;;28.63;7.25;;;;;;;;;;5040601;28;20120;-58
2023/12/15 11:09:07;;;;;;;24.33;6.03;;;;;;;;;;5024316;28;20045;-58
2023/12/15 11:11:33;;;;;;;30.83;5.70;;;;;;;;;;5043773;28;20394;-58
2023/12/15 11:14:04;;;;;;;28.90;5.22;;;;;;;;;;5044211;28;20426;-59
2023/12/15 11:16:31;;;;;;;24.20;5.93;;;;;;;;;;5031844;28;20045;-58
2023/12/15 11:18:59;;;;;;;34.28;6.40;;;;;;;;;;5044546;28;20037;-59
2023/12/15 11:21:25;;;;;;;27.48;5.53;;;;;;;;;;5044477;28;20094;-60
2023/12/15 11:23:55;;;;;;;28.70;5.38;;;;;;;;;;5044558;28;20658;-59
2023/12/15 11:26:22;;;;;;;27.42;5.45;;;;;;;;;;5044410;28;20114;-59
2023/12/15 11:28:48;;;;;;;25.00;4.68;;;;;;;;;;5039880;28;20098;-58
2023/12/15 11:31:22;;;;;;;39.72;5.68;;;;;;;;;;5044764;28;20041;-58
2023/12/15 11:33:49;;;;;;;31.25;5.00;;;;;;;;;;5043473;28;20076;-58
2023/12/15 11:36:15;;;;;;;23.40;5.03;;;;;;;;;;5044596;28;20056;-59
2023/12/15 11:38:42;;;;;;;36.78;5.15;;;;;;;;;;5028724;28;20056;-58
2023/12/15 11:41:10;;;;;;;21.48;5.05;;;;;;;;;;5043406;28;20111;-59
2023/12/15 11:43:36;;;;;;;23.70;4.25;;;;;;;;;;5044020;28;20053;-59
2023/12/15 11:46:03;;;;;;;24.73;4.57;;;;;;;;;;5044216;28;20127;-59
2023/12/15 11:48:29;;;;;;;36.80;5.18;;;;;;;;;;5043425;28;20048;-59
2023/12/15 11:50:56;;;;;;;25.83;4.55;;;;;;;;;;5044099;28;20036;-58
2023/12/15 11:53:23;;;;;;;21.85;3.95;;;;;;;;;;5026284;28;20052;-59
2023/12/15 11:55:49;;;;;;;33.72;5.72;;;;;;;;;;5043413;28;20052;-58
2023/12/15 11:58:15;;;;;;;34.50;5.57;;;;;;;;;;5043642;28;20052;-58
2023/12/15 12:00:42;;;;;;;23.70;4.65;;;;;;;;;;5026092;28;20056;-59
2023/12/15 12:03:13;;;;;;;28.15;4.32;;;;;;;;;;5043165;28;20190;-59
2023/12/15 12:05:40;;;;;;;30.48;4.72;;;;;;;;;;5043548;28;20053;-58
2023/12/15 12:08:07;;;;;;;26.35;4.90;;;;;;;;;;5043266;28;20094;-60
2023/12/15 12:10:34;;;;;;;32.67;4.47;;;;;;;;;;5041989;28;20052;-59
2023/12/15 12:13:00;;;;;;;33.45;5.68;;;;;;;;;;5043132;28;20037;-59
2023/12/15 12:15:27;;;;;;;28.27;4.47;;;;;;;;;;5039070;28;20057;-59
2023/12/15 12:17:53;;;;;;;25.45;5.55;;;;;;;;;;5038193;28;20077;-59
2023/12/15 12:20:19;;;;;;;23.42;5.20;;;;;;;;;;5039669;28;20056;-59
2023/12/15 12:22:46;;;;;;;22.83;4.53;;;;;;;;;;5016612;28;20562;-58
2023/12/15 12:25:13;;;;;;;24.45;4.90;;;;;;;;;;5039920;28;20094;-58
2023/12/15 12:27:39;;;;;;;30.70;4.72;;;;;;;;;;5022366;28;20052;-59
2023/12/15 12:30:12;;;;;;;25.60;5.10;;;;;;;;;;5039692;28;20041;-59
2023/12/15 12:32:38;;;;;;;27.38;4.90;;;;;;;;;;5039657;28;20055;-59
2023/12/15 12:35:05;;;;;;;29.35;5.18;;;;;;;;;;5039932;28;20059;-59
2023/12/15 12:37:34;;;;;;;29.00;4.97;;;;;;;;;;5038724;28;20068;-59
2023/12/15 12:40:00;;;;;;;24.55;4.93;;;;;;;;;;5039028;28;20053;-60
2023/12/15 12:42:27;;;;;;;26.15;4.40;;;;;;;;;;5040693;28;20924;-59
2023/12/15 12:44:53;;;;;;;25.90;4.65;;;;;;;;;;5039350;28;20521;-59
2023/12/15 12:47:19;;;;;;;23.92;4.45;;;;;;;;;;5019480;28;20049;-59
2023/12/15 12:49:49;;;;;;;28.80;4.68;;;;;;;;;;5041982;28;20084;-59
2023/12/15 12:52:14;;;;;;;34.55;4.75;;;;;;;;;;5041950;28;20052;-58
2023/12/15 12:54:40;;;;;;;21.60;4.38;;;;;;;;;;5024650;28;20044;-59
2023/12/15 12:57:10;;;;;;;23.73;4.20;;;;;;;;;;5041446;28;20064;-59
2023/12/15 12:59:43;;;;;;;29.23;4.63;;;;;;;;;;5042621;28;20309;-59
2023/12/15 13:02:09;;;;;;;28.73;4.65;;;;;;;;;;5033740;28;20048;-59
2023/12/15 13:04:35;;;;;;;24.30;4.10;;;;;;;;;;5040842;28;20049;-59
2023/12/15 13:07:01;;;;;;;30.98;4.15;;;;;;;;;;5025463;28;20056;-62
2023/12/15 13:09:27;;;;;;;20.23;4.32;;;;;;;;;;5040693;28;20053;-58
2023/12/15 13:11:53;;;;;;;21.67;5.13;;;;;;;;;;5039798;28;20113;-59
2023/12/15 13:14:19;;;;;;;32.78;4.03;;;;;;;;;;5040038;28;20060;-58
2023/12/15 13:16:45;;;;;;;30.00;4.25;;;;;;;;;;5023015;28;20049;-59
2023/12/15 13:19:12;;;;;;;26.77;4.32;;;;;;;;;;5029653;28;20119;-58
2023/12/15 13:21:38;;;;;;;19.83;3.90;;;;;;;;;;5040398;28;20040;-58
2023/12/15 13:24:05;;;;;;;22.85;4.68;;;;;;;;;;5041500;28;20095;-59
2023/12/15 13:26:31;;;;;;;26.90;5.00;;;;;;;;;;5041498;28;20045;-58
2023/12/15 13:28:57;;;;;;;30.35;4.18;;;;;;;;;;5042011;28;20045;-59
2023/12/15 13:31:23;;;;;;;29.70;4.68;;;;;;;;;;5041365;28;20474;-58
2023/12/15 13:33:50;;;;;;;21.73;4.10;;;;;;;;;;5040941;28;20798;-59
2023/12/15 13:36:16;;;;;;;28.67;4.32;;;;;;;;;;5042240;28;20037;-58
2023/12/15 13:38:43;;;;;;;27.50;5.32;;;;;;;;;;5041931;28;20094;-59
2023/12/15 13:41:10;;;;;;;24.25;4.30;;;;;;;;;;5023470;28;20191;-59
2023/12/15 13:43:39;;;;;;;24.50;4.10;;;;;;;;;;5041311;28;20083;-59
2023/12/15 13:46:05;;;;;;;23.48;4.00;;;;;;;;;;5042320;28;20045;-59
2023/12/15 13:48:31;;;;;;;23.60;4.03;;;;;;;;;;5041941;28;20045;-59
2023/12/15 13:50:58;;;;;;;31.88;3.92;;;;;;;;;;5041664;28;20482;-59
2023/12/15 13:53:25;;;;;;;27.65;4.45;;;;;;;;;;5041389;28;20487;-59
2023/12/15 13:55:51;;;;;;;27.75;4.32;;;;;;;;;;5040621;28;20052;-59
2023/12/15 13:58:17;;;;;;;27.65;3.75;;;;;;;;;;5039680;28;20642;-59
2023/12/15 14:00:44;;;;;;;20.35;3.95;;;;;;;;;;5041552;28;20135;-59
2023/12/15 14:03:10;;;;;;;21.90;4.35;;;;;;;;;;5040989;28;20087;-59
2023/12/15 14:05:36;;;;;;;26.98;4.65;;;;;;;;;;5041563;28;20080;-59
2023/12/15 14:08:02;;;;;;;30.77;4.35;;;;;;;;;;5041179;28;20056;-59
2023/12/15 14:10:29;;;;;;;20.05;3.97;;;;;;;;;;5035867;28;20040;-59
2023/12/15 14:12:55;;;;;;;26.17;3.92;;;;;;;;;;5031046;28;20077;-59
2023/12/15 14:15:22;;;;;;;21.65;3.80;;;;;;;;;;5038954;28;20351;-59
2023/12/15 14:17:48;;;;;;;23.98;3.50;;;;;;;;;;5038964;28;20067;-59